sensor_id;sensor_type;location;lat;lon;timestamp;pressure;altitude;pressure_sealevel;temperature;humidity
64908;BME280;64365;-1.756;110.040;2023-01-27T00:02:15;102552.88;;;8.23;78.89
64908;BME280;64365;-1.756;110.040;2023-01-27T00:04:41;102556.78;;;8.25;78.28
64908;BME280;64365;-1.756;110.040;2023-01-27T00:07:07;102552.44;;;8.30;76.00
64908;BME280;64365;-1.756;110.040;2023-01-27T00:09:35;102556.59;;;8.22;76.29
64908;BME280;64365;-1.756;110.040;2023-01-27T00:12:01;102553.19;;;8.21;77.12
64908;BME280;64365;-1.756;110.040;2023-01-27T00:14:44;102549.72;;;8.21;75.17
64908;BME280;64365;-1.756;110.040;2023-01-27T00:17:11;102552.69;;;8.19;75.79
64908;BME280;64365;-1.756;110.040;2023-01-27T00:19:37;102549.25;;;8.19;76.21
64908;BME280;64365;-1.756;110.040;2023-01-27T00:22:08;102553.59;;;8.15;75.74
64908;BME280;64365;-1.756;110.040;2023-01-27T00:24:53;102545.91;;;8.04;78.94
64908;BME280;64365;-1.756;110.040;2023-01-27T00:27:19;102546.25;;;8.12;78.08
64908;BME280;64365;-1.756;110.040;2023-01-27T00:29:48;102554.19;;;8.12;76.75
64908;BME280;64365;-1.756;110.040;2023-01-27T00:32:16;102553.53;;;8.06;76.48
64908;BME280;64365;-1.756;110.040;2023-01-27T00:35:00;102550.44;;;8.04;76.94
64908;BME280;64365;-1.756;110.040;2023-01-27T00:37:26;102545.59;;;8.06;77.20
64908;BME280;64365;-1.756;110.040;2023-01-27T00:39:55;102552.47;;;8.07;76.11
64908;BME280;64365;-1.756;110.040;2023-01-27T00:42:22;102552.78;;;8.05;74.88
64908;BME280;64365;-1.756;110.040;2023-01-27T00:44:48;102548.25;;;8.06;75.53
64908;BME280;64365;-1.756;110.040;2023-01-27T00:47:28;102549.81;;;8.07;75.90
64908;BME280;64365;-1.756;110.040;2023-01-27T00:49:55;102565.50;;;8.03;75.99
64908;BME280;64365;-1.756;110.040;2023-01-27T00:52:21;102557.41;;;8.00;76.13
64908;BME280;64365;-1.756;110.040;2023-01-27T00:54:47;102558.00;;;7.97;78.16
64908;BME280;64365;-1.756;110.040;2023-01-27T00:57:15;102567.50;;;7.98;76.59
64908;BME280;64365;-1.756;110.040;2023-01-27T00:59:41;102567.59;;;8.06;76.00
64908;BME280;64365;-1.756;110.040;2023-01-27T01:02:08;102566.53;;;7.93;76.21
64908;BME280;64365;-1.756;110.040;2023-01-27T01:04:34;102572.03;;;7.97;76.40
64908;BME280;64365;-1.756;110.040;2023-01-27T01:07:01;102558.78;;;7.97;76.33
64908;BME280;64365;-1.756;110.040;2023-01-27T01:09:27;102568.88;;;7.95;76.04
64908;BME280;64365;-1.756;110.040;2023-01-27T01:11:54;102564.97;;;7.92;77.01
64908;BME280;64365;-1.756;110.040;2023-01-27T01:14:21;102569.81;;;7.90;75.12
64908;BME280;64365;-1.756;110.040;2023-01-27T01:16:48;102582.63;;;7.97;76.08
64908;BME280;64365;-1.756;110.040;2023-01-27T01:19:14;102571.00;;;7.84;77.47
64908;BME280;64365;-1.756;110.040;2023-01-27T01:21:41;102578.22;;;7.92;76.08
64908;BME280;64365;-1.756;110.040;2023-01-27T01:24:08;102581.47;;;7.89;75.86
64908;BME280;64365;-1.756;110.040;2023-01-27T01:26:35;102584.22;;;7.84;75.16
64908;BME280;64365;-1.756;110.040;2023-01-27T01:29:01;102580.00;;;7.83;76.24
64908;BME280;64365;-1.756;110.040;2023-01-27T01:31:29;102580.50;;;7.85;77.21
64908;BME280;64365;-1.756;110.040;2023-01-27T01:33:55;102590.03;;;7.86;76.61
64908;BME280;64365;-1.756;110.040;2023-01-27T01:36:22;102580.00;;;7.83;75.06
64908;BME280;64365;-1.756;110.040;2023-01-27T01:38:52;102577.66;;;7.82;79.15
64908;BME280;64365;-1.756;110.040;2023-01-27T01:41:19;102587.53;;;7.90;78.95
64908;BME280;64365;-1.756;110.040;2023-01-27T01:43:45;102586.16;;;7.92;77.68
64908;BME280;64365;-1.756;110.040;2023-01-27T01:46:12;102588.50;;;7.94;77.05
64908;BME280;64365;-1.756;110.040;2023-01-27T01:48:40;102586.97;;;7.93;75.45
64908;BME280;64365;-1.756;110.040;2023-01-27T01:51:08;102587.84;;;7.88;74.87
64908;BME280;64365;-1.756;110.040;2023-01-27T01:53:39;102590.78;;;7.87;75.01
64908;BME280;64365;-1.756;110.040;2023-01-27T01:56:09;102589.84;;;7.83;77.76
64908;BME280;64365;-1.756;110.040;2023-01-27T01:58:37;102595.66;;;7.93;77.42
64908;BME280;64365;-1.756;110.040;2023-01-27T02:01:04;102589.09;;;7.91;75.41
64908;BME280;64365;-1.756;110.040;2023-01-27T02:03:31;102591.75;;;7.91;75.06
64908;BME280;64365;-1.756;110.040;2023-01-27T02:06:00;102594.81;;;7.84;75.34
64908;BME280;64365;-1.756;110.040;2023-01-27T02:08:28;102584.53;;;7.83;75.15
64908;BME280;64365;-1.756;110.040;2023-01-27T02:10:56;102587.28;;;7.78;75.75
64908;BME280;64365;-1.756;110.040;2023-01-27T02:13:23;102587.50;;;7.81;80.12
64908;BME280;64365;-1.756;110.040;2023-01-27T02:15:49;102597.66;;;7.88;79.23
64908;BME280;64365;-1.756;110.040;2023-01-27T02:18:18;102595.66;;;7.93;77.15
64908;BME280;64365;-1.756;110.040;2023-01-27T02:20:46;102601.94;;;7.98;77.06
64908;BME280;64365;-1.756;110.040;2023-01-27T02:23:23;102606.91;;;7.99;76.99
64908;BME280;64365;-1.756;110.040;2023-01-27T02:25:55;102596.31;;;7.99;75.57
64908;BME280;64365;-1.756;110.040;2023-01-27T02:28:24;102598.53;;;7.83;74.15
64908;BME280;64365;-1.756;110.040;2023-01-27T02:30:51;102607.69;;;7.77;74.88
64908;BME280;64365;-1.756;110.040;2023-01-27T02:33:17;102604.50;;;7.66;75.79
64908;BME280;64365;-1.756;110.040;2023-01-27T02:35:46;102598.41;;;7.66;75.65
64908;BME280;64365;-1.756;110.040;2023-01-27T02:38:15;102613.03;;;7.63;75.64
64908;BME280;64365;-1.756;110.040;2023-01-27T02:40:42;102603.53;;;7.62;75.01
64908;BME280;64365;-1.756;110.040;2023-01-27T02:43:10;102613.50;;;7.65;75.30
64908;BME280;64365;-1.756;110.040;2023-01-27T02:45:37;102612.94;;;7.54;75.32
64908;BME280;64365;-1.756;110.040;2023-01-27T02:48:03;102616.97;;;7.52;75.95
64908;BME280;64365;-1.756;110.040;2023-01-27T02:50:30;102614.91;;;7.49;76.03
64908;BME280;64365;-1.756;110.040;2023-01-27T02:52:56;102620.81;;;7.46;75.29
64908;BME280;64365;-1.756;110.040;2023-01-27T02:55:22;102625.13;;;7.41;74.83
64908;BME280;64365;-1.756;110.040;2023-01-27T02:57:49;102628.56;;;7.28;78.24
64908;BME280;64365;-1.756;110.040;2023-01-27T03:00:17;102633.25;;;7.31;76.40
64908;BME280;64365;-1.756;110.040;2023-01-27T03:02:43;102630.63;;;7.31;75.44
64908;BME280;64365;-1.756;110.040;2023-01-27T03:05:10;102634.72;;;7.23;75.17
64908;BME280;64365;-1.756;110.040;2023-01-27T03:07:36;102639.03;;;7.19;74.85
64908;BME280;64365;-1.756;110.040;2023-01-27T03:10:02;102637.09;;;7.11;74.25
64908;BME280;64365;-1.756;110.040;2023-01-27T03:12:29;102629.34;;;7.01;74.54
64908;BME280;64365;-1.756;110.040;2023-01-27T03:14:55;102629.75;;;6.94;74.84
64908;BME280;64365;-1.756;110.040;2023-01-27T03:17:40;102632.41;;;6.94;74.84
64908;BME280;64365;-1.756;110.040;2023-01-27T03:20:24;102639.53;;;6.94;74.79
64908;BME280;64365;-1.756;110.040;2023-01-27T03:22:50;102632.47;;;6.89;75.45
64908;BME280;64365;-1.756;110.040;2023-01-27T03:25:17;102639.81;;;6.92;74.96
64908;BME280;64365;-1.756;110.040;2023-01-27T03:27:43;102628.56;;;6.86;74.84
64908;BME280;64365;-1.756;110.040;2023-01-27T03:30:10;102643.91;;;6.84;74.70
64908;BME280;64365;-1.756;110.040;2023-01-27T03:32:36;102639.81;;;6.78;74.60
64908;BME280;64365;-1.756;110.040;2023-01-27T03:35:11;102643.53;;;6.77;74.99
64908;BME280;64365;-1.756;110.040;2023-01-27T03:37:39;102648.03;;;6.77;75.26
64908;BME280;64365;-1.756;110.040;2023-01-27T03:40:23;102645.38;;;6.77;75.40
64908;BME280;64365;-1.756;110.040;2023-01-27T03:43:07;102645.94;;;6.73;75.22
64908;BME280;64365;-1.756;110.040;2023-01-27T03:45:51;102643.13;;;6.70;74.24
64908;BME280;64365;-1.756;110.040;2023-01-27T03:48:36;102648.78;;;6.63;74.58
64908;BME280;64365;-1.756;110.040;2023-01-27T03:51:04;102654.06;;;6.63;74.54
64908;BME280;64365;-1.756;110.040;2023-01-27T03:53:32;102661.69;;;6.65;74.45
64908;BME280;64365;-1.756;110.040;2023-01-27T03:55:59;102651.28;;;6.54;73.93
64908;BME280;64365;-1.756;110.040;2023-01-27T03:58:26;102657.09;;;6.56;74.47
64908;BME280;64365;-1.756;110.040;2023-01-27T04:00:54;102663.44;;;6.55;76.39
64908;BME280;64365;-1.756;110.040;2023-01-27T04:03:21;102664.13;;;6.61;74.48
64908;BME280;64365;-1.756;110.040;2023-01-27T04:06:08;102667.66;;;6.56;74.47
64908;BME280;64365;-1.756;110.040;2023-01-27T04:08:53;102660.72;;;6.61;74.15
64908;BME280;64365;-1.756;110.040;2023-01-27T04:11:20;102663.28;;;6.66;75.06
64908;BME280;64365;-1.756;110.040;2023-01-27T04:14:04;102667.97;;;6.69;74.42
64908;BME280;64365;-1.756;110.040;2023-01-27T04:16:31;102666.63;;;6.71;74.71
64908;BME280;64365;-1.756;110.040;2023-01-27T04:19:01;102676.31;;;6.76;74.80
64908;BME280;64365;-1.756;110.040;2023-01-27T04:21:29;102665.66;;;6.81;74.59
64908;BME280;64365;-1.756;110.040;2023-01-27T04:23:55;102676.00;;;6.78;74.93
64908;BME280;64365;-1.756;110.040;2023-01-27T04:26:22;102672.50;;;6.82;74.50
64908;BME280;64365;-1.756;110.040;2023-01-27T04:28:49;102671.16;;;6.85;74.60
64908;BME280;64365;-1.756;110.040;2023-01-27T04:31:15;102675.53;;;6.89;74.66
64908;BME280;64365;-1.756;110.040;2023-01-27T04:33:42;102668.22;;;6.86;75.17
64908;BME280;64365;-1.756;110.040;2023-01-27T04:36:09;102684.25;;;6.90;74.72
64908;BME280;64365;-1.756;110.040;2023-01-27T04:38:37;102672.31;;;6.93;74.10
64908;BME280;64365;-1.756;110.040;2023-01-27T04:41:03;102679.69;;;6.96;74.50
64908;BME280;64365;-1.756;110.040;2023-01-27T04:43:30;102680.44;;;6.96;74.14
64908;BME280;64365;-1.756;110.040;2023-01-27T04:45:57;102679.69;;;6.96;73.08
64908;BME280;64365;-1.756;110.040;2023-01-27T04:48:23;102672.72;;;7.00;74.14
64908;BME280;64365;-1.756;110.040;2023-01-27T04:50:50;102679.00;;;7.04;74.19
64908;BME280;64365;-1.756;110.040;2023-01-27T04:53:16;102682.63;;;7.08;74.22
64908;BME280;64365;-1.756;110.040;2023-01-27T04:55:45;102685.34;;;7.03;72.23
64908;BME280;64365;-1.756;110.040;2023-01-27T04:58:14;102685.88;;;7.05;73.21
64908;BME280;64365;-1.756;110.040;2023-01-27T05:00:41;102682.41;;;7.04;72.97
64908;BME280;64365;-1.756;110.040;2023-01-27T05:03:08;102685.16;;;6.99;72.88
64908;BME280;64365;-1.756;110.040;2023-01-27T05:05:35;102681.34;;;7.05;73.70
64908;BME280;64365;-1.756;110.040;2023-01-27T05:08:02;102678.69;;;7.05;73.25
64908;BME280;64365;-1.756;110.040;2023-01-27T05:10:28;102686.72;;;7.00;72.67
64908;BME280;64365;-1.756;110.040;2023-01-27T05:12:56;102693.06;;;6.99;72.36
64908;BME280;64365;-1.756;110.040;2023-01-27T05:15:22;102694.25;;;6.93;71.44
64908;BME280;64365;-1.756;110.040;2023-01-27T05:17:49;102699.72;;;6.97;73.48
64908;BME280;64365;-1.756;110.040;2023-01-27T05:20:15;102713.94;;;7.01;71.51
64908;BME280;64365;-1.756;110.040;2023-01-27T05:22:42;102708.16;;;6.99;71.54
64908;BME280;64365;-1.756;110.040;2023-01-27T05:25:08;102702.09;;;6.98;73.50
64908;BME280;64365;-1.756;110.040;2023-01-27T05:27:35;102697.97;;;7.06;72.66
64908;BME280;64365;-1.756;110.040;2023-01-27T05:30:03;102697.59;;;7.13;73.06
64908;BME280;64365;-1.756;110.040;2023-01-27T05:32:30;102696.44;;;7.19;73.43
64908;BME280;64365;-1.756;110.040;2023-01-27T05:34:56;102698.03;;;7.20;71.51
64908;BME280;64365;-1.756;110.040;2023-01-27T05:37:22;102707.19;;;7.22;74.56
64908;BME280;64365;-1.756;110.040;2023-01-27T05:39:49;102713.97;;;7.29;72.84
64908;BME280;64365;-1.756;110.040;2023-01-27T05:42:15;102714.88;;;7.38;72.50
64908;BME280;64365;-1.756;110.040;2023-01-27T05:44:42;102721.31;;;7.32;71.82
64908;BME280;64365;-1.756;110.040;2023-01-27T05:47:10;102729.84;;;7.29;71.79
64908;BME280;64365;-1.756;110.040;2023-01-27T05:49:36;102729.94;;;7.23;71.62
64908;BME280;64365;-1.756;110.040;2023-01-27T05:52:02;102734.75;;;7.21;71.45
64908;BME280;64365;-1.756;110.040;2023-01-27T05:54:29;102733.94;;;7.21;70.93
64908;BME280;64365;-1.756;110.040;2023-01-27T05:56:55;102740.59;;;7.18;71.13
64908;BME280;64365;-1.756;110.040;2023-01-27T05:59:22;102737.38;;;7.21;70.71
64908;BME280;64365;-1.756;110.040;2023-01-27T06:01:48;102736.97;;;7.14;68.67
64908;BME280;64365;-1.756;110.040;2023-01-27T06:04:17;102738.84;;;7.14;70.13
64908;BME280;64365;-1.756;110.040;2023-01-27T06:06:43;102753.41;;;7.11;70.70
64908;BME280;64365;-1.756;110.040;2023-01-27T06:09:10;102742.63;;;7.07;69.76
64908;BME280;64365;-1.756;110.040;2023-01-27T06:11:36;102736.94;;;7.00;69.18
64908;BME280;64365;-1.756;110.040;2023-01-27T06:14:03;102735.75;;;6.93;69.44
64908;BME280;64365;-1.756;110.040;2023-01-27T06:16:30;102744.97;;;6.95;70.55
64908;BME280;64365;-1.756;110.040;2023-01-27T06:18:57;102729.78;;;6.87;68.93
64908;BME280;64365;-1.756;110.040;2023-01-27T06:21:25;102738.13;;;6.94;70.44
64908;BME280;64365;-1.756;110.040;2023-01-27T06:23:54;102741.03;;;6.93;69.67
64908;BME280;64365;-1.756;110.040;2023-01-27T06:26:22;102742.03;;;6.97;69.64
64908;BME280;64365;-1.756;110.040;2023-01-27T06:28:48;102744.03;;;7.05;69.94
64908;BME280;64365;-1.756;110.040;2023-01-27T06:31:16;102755.09;;;7.07;69.50
64908;BME280;64365;-1.756;110.040;2023-01-27T06:33:42;102749.31;;;7.05;70.32
64908;BME280;64365;-1.756;110.040;2023-01-27T06:36:10;102752.34;;;7.12;69.95
64908;BME280;64365;-1.756;110.040;2023-01-27T06:38:38;102757.84;;;7.16;69.23
64908;BME280;64365;-1.756;110.040;2023-01-27T06:41:07;102759.09;;;7.04;68.17
64908;BME280;64365;-1.756;110.040;2023-01-27T06:43:33;102752.84;;;7.14;69.49
64908;BME280;64365;-1.756;110.040;2023-01-27T06:46:00;102764.78;;;7.12;67.85
64908;BME280;64365;-1.756;110.040;2023-01-27T06:48:26;102760.38;;;7.07;68.57
64908;BME280;64365;-1.756;110.040;2023-01-27T06:50:55;102758.09;;;7.00;67.18
64908;BME280;64365;-1.756;110.040;2023-01-27T06:53:21;102749.88;;;7.02;69.01
64908;BME280;64365;-1.756;110.040;2023-01-27T06:55:50;102756.53;;;6.99;69.03
64908;BME280;64365;-1.756;110.040;2023-01-27T06:58:20;102747.03;;;6.98;69.37
64908;BME280;64365;-1.756;110.040;2023-01-27T07:00:46;102753.59;;;7.01;68.45
64908;BME280;64365;-1.756;110.040;2023-01-27T07:03:13;102750.47;;;6.99;67.65
64908;BME280;64365;-1.756;110.040;2023-01-27T07:05:39;102755.97;;;7.02;67.85
64908;BME280;64365;-1.756;110.040;2023-01-27T07:08:07;102762.03;;;7.03;67.48
64908;BME280;64365;-1.756;110.040;2023-01-27T07:10:33;102758.88;;;7.01;69.74
64908;BME280;64365;-1.756;110.040;2023-01-27T07:13:04;102758.31;;;7.04;66.09
64908;BME280;64365;-1.756;110.040;2023-01-27T07:15:31;102764.97;;;7.01;65.40
64908;BME280;64365;-1.756;110.040;2023-01-27T07:17:57;102764.38;;;7.04;67.44
64908;BME280;64365;-1.756;110.040;2023-01-27T07:20:24;102767.03;;;7.04;69.14
64908;BME280;64365;-1.756;110.040;2023-01-27T07:22:52;102763.53;;;7.09;67.91
64908;BME280;64365;-1.756;110.040;2023-01-27T07:25:19;102771.72;;;7.07;67.01
64908;BME280;64365;-1.756;110.040;2023-01-27T07:27:46;102780.94;;;7.10;67.19
64908;BME280;64365;-1.756;110.040;2023-01-27T07:30:15;102786.34;;;7.05;65.91
64908;BME280;64365;-1.756;110.040;2023-01-27T07:32:41;102791.03;;;7.08;67.97
64908;BME280;64365;-1.756;110.040;2023-01-27T07:35:07;102782.03;;;7.09;67.97
64908;BME280;64365;-1.756;110.040;2023-01-27T07:37:34;102795.13;;;7.14;67.36
64908;BME280;64365;-1.756;110.040;2023-01-27T07:40:00;102796.31;;;7.08;66.04
64908;BME280;64365;-1.756;110.040;2023-01-27T07:42:27;102804.16;;;7.13;68.49
64908;BME280;64365;-1.756;110.040;2023-01-27T07:44:53;102802.00;;;7.15;67.35
64908;BME280;64365;-1.756;110.040;2023-01-27T07:47:21;102796.63;;;7.20;67.01
64908;BME280;64365;-1.756;110.040;2023-01-27T07:49:48;102803.22;;;7.23;68.77
64908;BME280;64365;-1.756;110.040;2023-01-27T07:52:14;102806.06;;;7.27;66.01
64908;BME280;64365;-1.756;110.040;2023-01-27T07:54:41;102796.75;;;7.29;67.14
64908;BME280;64365;-1.756;110.040;2023-01-27T07:57:08;102790.59;;;7.34;67.58
64908;BME280;64365;-1.756;110.040;2023-01-27T07:59:34;102795.00;;;7.38;70.62
64908;BME280;64365;-1.756;110.040;2023-01-27T08:02:00;102791.50;;;7.43;66.17
64908;BME280;64365;-1.756;110.040;2023-01-27T08:04:28;102805.19;;;7.45;66.96
64908;BME280;64365;-1.756;110.040;2023-01-27T08:06:54;102804.63;;;7.48;67.41
64908;BME280;64365;-1.756;110.040;2023-01-27T08:09:21;102798.25;;;7.49;66.76
64908;BME280;64365;-1.756;110.040;2023-01-27T08:11:47;102792.25;;;7.44;65.15
64908;BME280;64365;-1.756;110.040;2023-01-27T08:14:14;102800.09;;;7.35;67.10
64908;BME280;64365;-1.756;110.040;2023-01-27T08:16:40;102804.31;;;7.36;68.79
64908;BME280;64365;-1.756;110.040;2023-01-27T08:19:06;102803.22;;;7.37;69.18
64908;BME280;64365;-1.756;110.040;2023-01-27T08:21:34;102810.50;;;7.45;66.79
64908;BME280;64365;-1.756;110.040;2023-01-27T08:24:00;102813.63;;;7.47;66.36
64908;BME280;64365;-1.756;110.040;2023-01-27T08:26:27;102807.84;;;7.45;66.00
64908;BME280;64365;-1.756;110.040;2023-01-27T08:28:53;102813.06;;;7.50;67.16
64908;BME280;64365;-1.756;110.040;2023-01-27T08:31:20;102808.66;;;7.59;67.98
64908;BME280;64365;-1.756;110.040;2023-01-27T08:33:49;102806.81;;;7.74;66.55
64908;BME280;64365;-1.756;110.040;2023-01-27T08:36:16;102802.88;;;7.85;67.66
64908;BME280;64365;-1.756;110.040;2023-01-27T08:38:44;102798.47;;;7.95;65.04
64908;BME280;64365;-1.756;110.040;2023-01-27T08:41:14;102804.06;;;7.93;66.70
64908;BME280;64365;-1.756;110.040;2023-01-27T08:43:41;102798.38;;;8.00;63.94
64908;BME280;64365;-1.756;110.040;2023-01-27T08:46:08;102797.97;;;8.06;65.70
64908;BME280;64365;-1.756;110.040;2023-01-27T08:48:35;102808.75;;;7.96;63.73
64908;BME280;64365;-1.756;110.040;2023-01-27T08:51:02;102802.09;;;7.99;65.89
64908;BME280;64365;-1.756;110.040;2023-01-27T08:53:29;102810.50;;;8.01;64.49
64908;BME280;64365;-1.756;110.040;2023-01-27T08:55:57;102813.94;;;8.01;64.98
64908;BME280;64365;-1.756;110.040;2023-01-27T08:58:24;102814.81;;;7.97;66.59
64908;BME280;64365;-1.756;110.040;2023-01-27T09:00:50;102829.91;;;8.10;64.29
64908;BME280;64365;-1.756;110.040;2023-01-27T09:03:17;102829.28;;;8.41;66.32
64908;BME280;64365;-1.756;110.040;2023-01-27T09:05:44;102834.16;;;8.62;63.79
64908;BME280;64365;-1.756;110.040;2023-01-27T09:08:10;102825.13;;;8.63;67.32
64908;BME280;64365;-1.756;110.040;2023-01-27T09:10:37;102831.06;;;8.82;64.54
64908;BME280;64365;-1.756;110.040;2023-01-27T09:13:05;102828.06;;;9.29;61.19
64908;BME280;64365;-1.756;110.040;2023-01-27T09:15:33;102826.31;;;9.96;62.49
64908;BME280;64365;-1.756;110.040;2023-01-27T09:17:59;102830.63;;;10.58;57.14
64908;BME280;64365;-1.756;110.040;2023-01-27T09:20:25;102822.25;;;11.30;56.50
64908;BME280;64365;-1.756;110.040;2023-01-27T09:22:53;102830.72;;;11.92;53.10
64908;BME280;64365;-1.756;110.040;2023-01-27T09:25:19;102832.81;;;12.37;54.82
64908;BME280;64365;-1.756;110.040;2023-01-27T09:27:45;102842.91;;;12.86;48.44
64908;BME280;64365;-1.756;110.040;2023-01-27T09:30:14;102847.41;;;13.40;48.29
64908;BME280;64365;-1.756;110.040;2023-01-27T09:32:40;102846.59;;;14.14;45.23
64908;BME280;64365;-1.756;110.040;2023-01-27T09:35:07;102837.50;;;14.72;48.61
64908;BME280;64365;-1.756;110.040;2023-01-27T09:37:35;102832.50;;;15.30;44.97
64908;BME280;64365;-1.756;110.040;2023-01-27T09:40:07;102842.44;;;15.97;45.32
64908;BME280;64365;-1.756;110.040;2023-01-27T09:42:41;102842.50;;;16.37;42.99
64908;BME280;64365;-1.756;110.040;2023-01-27T09:45:35;102829.84;;;16.57;42.58
64908;BME280;64365;-1.756;110.040;2023-01-27T09:48:09;102821.53;;;16.85;41.06
64908;BME280;64365;-1.756;110.040;2023-01-27T09:50:41;102838.03;;;17.07;41.56
64908;BME280;64365;-1.756;110.040;2023-01-27T09:53:12;102834.66;;;17.37;41.88
64908;BME280;64365;-1.756;110.040;2023-01-27T09:55:44;102831.66;;;17.95;42.75
64908;BME280;64365;-1.756;110.040;2023-01-27T09:58:18;102839.22;;;17.86;38.37
64908;BME280;64365;-1.756;110.040;2023-01-27T10:00:53;102838.38;;;18.09;39.48
64908;BME280;64365;-1.756;110.040;2023-01-27T10:03:29;102838.25;;;18.28;38.86
64908;BME280;64365;-1.756;110.040;2023-01-27T10:06:09;102845.44;;;18.21;36.34
64908;BME280;64365;-1.756;110.040;2023-01-27T10:09:03;102848.81;;;18.14;38.32
64908;BME280;64365;-1.756;110.040;2023-01-27T10:11:35;102845.19;;;18.33;37.08
64908;BME280;64365;-1.756;110.040;2023-01-27T10:14:10;102846.19;;;18.17;36.39
64908;BME280;64365;-1.756;110.040;2023-01-27T10:16:47;102849.69;;;18.22;38.20
64908;BME280;64365;-1.756;110.040;2023-01-27T10:19:26;102851.06;;;17.81;36.75
64908;BME280;64365;-1.756;110.040;2023-01-27T10:21:57;102849.03;;;17.48;37.82
64908;BME280;64365;-1.756;110.040;2023-01-27T10:24:31;102850.69;;;17.29;40.10
64908;BME280;64365;-1.756;110.040;2023-01-27T10:27:04;102839.44;;;17.24;40.33
64908;BME280;64365;-1.756;110.040;2023-01-27T10:29:34;102850.34;;;17.08;40.65
64908;BME280;64365;-1.756;110.040;2023-01-27T10:32:06;102844.91;;;16.42;41.32
64908;BME280;64365;-1.756;110.040;2023-01-27T10:34:33;102853.63;;;16.19;39.82
64908;BME280;64365;-1.756;110.040;2023-01-27T10:37:03;102856.41;;;15.71;42.29
64908;BME280;64365;-1.756;110.040;2023-01-27T10:39:35;102847.63;;;15.23;40.96
64908;BME280;64365;-1.756;110.040;2023-01-27T10:42:09;102852.06;;;14.46;43.33
64908;BME280;64365;-1.756;110.040;2023-01-27T10:44:47;102864.44;;;13.97;43.92
64908;BME280;64365;-1.756;110.040;2023-01-27T10:47:22;102861.53;;;13.41;44.81
64908;BME280;64365;-1.756;110.040;2023-01-27T10:49:52;102857.34;;;12.85;48.61
64908;BME280;64365;-1.756;110.040;2023-01-27T10:52:22;102864.34;;;12.56;47.18
64908;BME280;64365;-1.756;110.040;2023-01-27T10:54:52;102865.41;;;12.22;47.27
64908;BME280;64365;-1.756;110.040;2023-01-27T10:57:20;102865.63;;;11.69;51.04
64908;BME280;64365;-1.756;110.040;2023-01-27T10:59:51;102872.13;;;11.42;50.82
64908;BME280;64365;-1.756;110.040;2023-01-27T11:02:24;102857.16;;;11.28;50.50
64908;BME280;64365;-1.756;110.040;2023-01-27T11:04:55;102862.84;;;11.01;54.01
64908;BME280;64365;-1.756;110.040;2023-01-27T11:07:23;102853.63;;;10.89;52.61
64908;BME280;64365;-1.756;110.040;2023-01-27T11:09:51;102864.88;;;10.86;51.80
64908;BME280;64365;-1.756;110.040;2023-01-27T11:12:22;102861.16;;;10.61;52.32
64908;BME280;64365;-1.756;110.040;2023-01-27T11:14:51;102860.19;;;10.39;55.37
64908;BME280;64365;-1.756;110.040;2023-01-27T11:17:19;102858.72;;;10.24;54.61
64908;BME280;64365;-1.756;110.040;2023-01-27T11:19:53;102858.69;;;10.07;55.39
64908;BME280;64365;-1.756;110.040;2023-01-27T11:22:22;102853.03;;;10.00;54.53
64908;BME280;64365;-1.756;110.040;2023-01-27T11:24:51;102867.19;;;9.86;53.74
64908;BME280;64365;-1.756;110.040;2023-01-27T11:27:21;102866.03;;;9.70;54.33
64908;BME280;64365;-1.756;110.040;2023-01-27T11:29:51;102865.72;;;9.63;54.81
64908;BME280;64365;-1.756;110.040;2023-01-27T11:32:21;102858.31;;;9.51;54.85
64908;BME280;64365;-1.756;110.040;2023-01-27T11:34:56;102852.31;;;9.36;56.33
64908;BME280;64365;-1.756;110.040;2023-01-27T11:37:29;102851.09;;;9.42;55.12
64908;BME280;64365;-1.756;110.040;2023-01-27T11:39:56;102851.78;;;9.25;58.09
64908;BME280;64365;-1.756;110.040;2023-01-27T11:42:22;102857.94;;;9.12;58.82
64908;BME280;64365;-1.756;110.040;2023-01-27T11:44:51;102851.06;;;9.11;58.74
64908;BME280;64365;-1.756;110.040;2023-01-27T11:47:21;102844.50;;;9.08;57.17
64908;BME280;64365;-1.756;110.040;2023-01-27T11:49:48;102845.53;;;8.99;59.17
64908;BME280;64365;-1.756;110.040;2023-01-27T11:52:19;102850.84;;;8.99;59.41
64908;BME280;64365;-1.756;110.040;2023-01-27T11:54:51;102850.34;;;8.97;62.55
64908;BME280;64365;-1.756;110.040;2023-01-27T11:57:24;102842.50;;;8.91;60.18
64908;BME280;64365;-1.756;110.040;2023-01-27T11:59:52;102842.75;;;8.81;66.18
64908;BME280;64365;-1.756;110.040;2023-01-27T12:02:23;102837.34;;;8.86;62.61
64908;BME280;64365;-1.756;110.040;2023-01-27T12:04:54;102844.03;;;8.84;63.00
64908;BME280;64365;-1.756;110.040;2023-01-27T12:07:27;102834.06;;;8.89;61.78
64908;BME280;64365;-1.756;110.040;2023-01-27T12:09:55;102827.19;;;8.88;62.43
64908;BME280;64365;-1.756;110.040;2023-01-27T12:12:22;102825.16;;;8.85;61.29
64908;BME280;64365;-1.756;110.040;2023-01-27T12:14:49;102827.81;;;8.85;62.98
64908;BME280;64365;-1.756;110.040;2023-01-27T12:17:20;102817.81;;;8.82;63.24
64908;BME280;64365;-1.756;110.040;2023-01-27T12:19:47;102820.16;;;8.84;61.04
64908;BME280;64365;-1.756;110.040;2023-01-27T12:22:15;102823.22;;;8.77;61.96
64908;BME280;64365;-1.756;110.040;2023-01-27T12:24:48;102819.63;;;8.73;62.41
64908;BME280;64365;-1.756;110.040;2023-01-27T12:27:18;102818.16;;;8.67;64.82
64908;BME280;64365;-1.756;110.040;2023-01-27T12:29:47;102809.59;;;8.70;63.98
64908;BME280;64365;-1.756;110.040;2023-01-27T12:32:16;102812.38;;;8.65;63.90
64908;BME280;64365;-1.756;110.040;2023-01-27T12:34:44;102812.84;;;8.67;62.85
64908;BME280;64365;-1.756;110.040;2023-01-27T12:37:16;102812.38;;;8.65;64.52
64908;BME280;64365;-1.756;110.040;2023-01-27T12:39:49;102810.69;;;8.69;62.81
64908;BME280;64365;-1.756;110.040;2023-01-27T12:45:27;102810.81;;;8.64;65.16
64908;BME280;64365;-1.756;110.040;2023-01-27T12:48:09;102807.75;;;8.70;61.75
64908;BME280;64365;-1.756;110.040;2023-01-27T12:50:40;102804.53;;;8.59;62.30